createdAt,value
2022-10-06T00:04:49.296Z,0.7324414715719063
2022-10-06T00:11:17.366Z,0.5852842809364549
2022-10-06T00:17:44.962Z,0.5451505016722408
2022-10-06T00:28:09.473Z,1.9297658862876255
2022-10-06T00:34:36.896Z,1.431438127090301
2022-10-06T00:41:03.518Z,1.9331103678929766
2022-10-06T00:47:31.257Z,2.301003344481605
2022-10-06T00:53:59.034Z,2.3779264214046822
2022-10-06T01:00:26.160Z,1.5384615384615385
2022-10-06T01:06:53.520Z,2.0735785953177257
2022-10-06T01:13:20.662Z,1.5551839464882944
2022-10-06T01:19:48.872Z,1.7023411371237458
2022-10-06T01:26:26.226Z,2.839464882943144
2022-10-06T01:32:52.833Z,1.8528428093645486
2022-10-06T01:39:19.929Z,3.3645484949832776
2022-10-06T01:45:47.415Z,1.6555183946488294
2022-10-06T02:02:40.142Z,2.5050167224080266
2022-10-06T02:09:07.581Z,1.254180602006689
2022-10-06T02:17:59.034Z,2.839464882943144
2022-10-06T02:24:34.757Z,2.6254180602006687
2022-10-06T02:31:02.053Z,3.4648829431438126
2022-10-06T02:37:29.441Z,2.2040133779264215
2022-10-06T02:43:56.641Z,2.0836120401337794
2022-10-06T02:50:30.081Z,3.347826086956522
2022-10-06T02:56:56.942Z,2.096989966555184
2022-10-06T03:03:24.796Z,2.8929765886287626
2022-10-06T03:09:52.662Z,2.277591973244147
2022-10-06T03:22:25.599Z,4.4280936454849495
2022-10-06T03:28:59.106Z,3.347826086956522
2022-10-06T03:35:26.750Z,4.090301003344481
2022-10-06T03:41:54.452Z,3.367892976588629
2022-10-06T03:48:21.813Z,5.046822742474917
2022-10-06T03:54:49.495Z,5.595317725752508
2022-10-06T04:01:18.431Z,4.501672240802676
2022-10-06T04:07:47.379Z,5.508361204013378
2022-10-06T04:14:16.282Z,6.842809364548495
2022-10-06T04:20:45.245Z,4.919732441471572
2022-10-06T04:27:13.436Z,7.809364548494983
2022-10-06T04:35:29.070Z,5.535117056856187
2022-10-06T04:42:00.290Z,5.809364548494983
2022-10-06T04:48:36.242Z,5.264214046822742
2022-10-06T04:55:10.290Z,7.193979933110368
2022-10-06T05:07:10.215Z,7.110367892976589
2022-10-06T05:13:37.932Z,5.6521739130434785
2022-10-06T05:32:04.303Z,6.8361204013377925
2022-10-06T05:44:07.812Z,8.016722408026755
2022-10-06T05:50:36.126Z,8.719063545150501
2022-10-06T06:02:10.535Z,8.090301003344482
2022-10-06T06:11:48.082Z,7.013377926421405
2022-10-06T06:18:15.677Z,8.120401337792643
2022-10-06T06:25:02.222Z,7.608695652173913
2022-10-06T06:31:43.542Z,6.909698996655519
2022-10-06T06:38:24.159Z,8.297658862876254
2022-10-06T06:49:12.694Z,8.103678929765886
2022-10-06T06:55:52.880Z,7.719063545150502
2022-10-06T07:02:32.657Z,8.060200668896321
2022-10-06T07:12:48.866Z,8.939799331103679
2022-10-06T07:27:10.469Z,8.110367892976589
2022-10-06T07:33:50.105Z,8.351170568561873
2022-10-06T07:40:29.485Z,8.381270903010034
2022-10-06T07:47:10.496Z,7.3244147157190636
2022-10-06T07:53:51.313Z,9.334448160535118
2022-10-06T08:07:13.929Z,13.66220735785953
2022-10-06T08:13:55.757Z,9.508361204013378
2022-10-06T08:20:26.056Z,7.234113712374582
2022-10-06T08:29:50.366Z,11.127090301003344
2022-10-06T08:36:18.367Z,8.809364548494983
2022-10-06T08:42:48.937Z,8.668896321070234
2022-10-06T08:49:16.491Z,9.91638795986622
2022-10-06T09:00:04.455Z,8.76923076923077
2022-10-06T09:06:32.078Z,9.775919732441471
2022-10-06T09:12:59.411Z,7.916387959866221
2022-10-06T09:19:30.005Z,9.107023411371237
2022-10-06T09:26:03.837Z,6.852842809364549
2022-10-06T09:32:34.047Z,9.19732441471572
2022-10-06T09:40:18.976Z,9.906354515050166
2022-10-06T09:46:54.207Z,7.698996655518394
2022-10-06T09:53:22.519Z,10.394648829431437
2022-10-06T10:00:01.754Z,8.40133779264214
2022-10-06T10:06:44.355Z,7.9799331103678925
2022-10-06T10:18:23.813Z,8.735785953177258
2022-10-06T10:25:14.352Z,6.505016722408027
2022-10-06T10:31:57.820Z,7.197324414715719
2022-10-06T10:38:37.111Z,8.729096989966555
2022-10-06T10:45:15.159Z,7.468227424749164
2022-10-06T10:51:44.960Z,7.301003344481606
2022-10-06T10:58:12.765Z,9.88628762541806
2022-10-06T11:09:06.476Z,9.34448160535117
2022-10-06T11:16:49.302Z,5.946488294314381
2022-10-06T11:23:17.686Z,6.471571906354515
2022-10-06T11:30:33.720Z,5.929765886287625
2022-10-06T11:37:03.124Z,5.374581939799331
2022-10-06T11:43:33.578Z,3.749163879598662
2022-10-06T11:50:03.769Z,4.735785953177258
2022-10-06T12:02:11.836Z,5.926421404682274
2022-10-06T12:08:47.392Z,4.919732441471572
2022-10-06T12:23:03.841Z,5.913043478260869
2022-10-06T12:29:35.736Z,7.0602006688963215
2022-10-06T12:36:03.965Z,8.441471571906355
2022-10-06T12:42:31.490Z,6.404682274247492
2022-10-06T12:49:01.604Z,5.130434782608695
2022-10-06T12:55:32.695Z,7.444816053511706
2022-10-06T13:02:03.117Z,6.829431438127091
2022-10-06T13:08:39.613Z,4.892976588628763
2022-10-06T13:15:23.529Z,8.812709030100335
2022-10-06T13:21:54.178Z,5.003344481605351
2022-10-06T13:28:25.478Z,6.4280936454849495
2022-10-06T13:35:54.018Z,6.083612040133779
2022-10-06T13:42:25.540Z,6.418060200668896
2022-10-06T13:48:56.877Z,4.160535117056856
2022-10-06T13:55:26.438Z,3.8862876254180603
2022-10-06T14:01:54.892Z,4.501672240802676
2022-10-06T14:15:26.473Z,4.264214046822742
2022-10-06T14:22:01.578Z,4.802675585284281
2022-10-06T14:28:46.072Z,6.869565217391305
2022-10-06T14:35:14.977Z,6.785953177257525
2022-10-06T14:41:43.360Z,7.010033444816053
2022-10-06T14:48:12.638Z,4.0
2022-10-06T14:54:43.643Z,3.2474916387959865
2022-10-06T15:01:11.239Z,5.130434782608695
2022-10-06T15:07:38.923Z,6.7157190635451505
2022-10-06T15:23:23.551Z,3.9966555183946486
2022-10-06T15:32:44.732Z,5.424749163879599
2022-10-06T15:41:43.406Z,6.384615384615385
2022-10-06T15:48:11.537Z,5.327759197324415
2022-10-06T15:54:42.038Z,9.143812709030101
2022-10-06T16:01:12.907Z,7.127090301003345
2022-10-06T16:07:44.977Z,5.622073578595318
2022-10-06T16:14:36.855Z,9.421404682274247
2022-10-06T16:21:11.519Z,6.59866220735786
2022-10-06T16:28:09.633Z,8.635451505016722
2022-10-06T16:34:51.140Z,6.2274247491638794
2022-10-06T16:41:37.642Z,7.270903010033445
2022-10-06T16:48:50.889Z,9.54180602006689
2022-10-06T17:00:22.741Z,6.949832775919733
2022-10-06T17:13:21.554Z,18.588628762541806
2022-10-06T17:26:19.143Z,9.602006688963211
2022-10-06T17:33:59.953Z,11.11371237458194
2022-10-06T17:55:05.297Z,10.946488294314381
2022-10-06T18:01:36.263Z,11.933110367892976
2022-10-06T18:08:10.815Z,8.408026755852843
2022-10-06T18:14:39.856Z,15.595317725752508
2022-10-06T18:21:09.638Z,10.792642140468228
2022-10-06T18:27:44.548Z,15.478260869565217
2022-10-06T18:36:10.947Z,22.45819397993311
2022-10-06T18:43:36.707Z,23.702341137123746
2022-10-06T18:52:23.743Z,18.792642140468228
2022-10-06T18:58:55.618Z,21.558528428093645
2022-10-06T19:05:24.931Z,14.51505016722408
2022-10-06T19:16:40.025Z,14.62541806020067
2022-10-06T19:23:12.048Z,12.090301003344482
2022-10-06T19:35:10.153Z,13.782608695652174
2022-10-06T19:41:40.086Z,28.0
2022-10-06T19:48:14.021Z,14.494983277591974
2022-10-06T19:54:50.850Z,13.692307692307692
2022-10-06T20:01:46.767Z,16.274247491638796
2022-10-06T20:08:38.464Z,14.060200668896321
2022-10-06T20:15:34.617Z,12.073578595317725
2022-10-06T20:24:16.686Z,15.785953177257525
2022-10-06T20:31:00.962Z,13.438127090301004
2022-10-06T20:42:58.615Z,14.304347826086957
2022-10-06T20:49:28.015Z,12.926421404682275
2022-10-06T20:55:58.785Z,12.511705685618729
2022-10-06T21:02:29.042Z,15.240802675585284
2022-10-06T21:08:57.340Z,13.822742474916389
2022-10-06T21:15:26.409Z,15.304347826086957
2022-10-06T21:23:28.673Z,15.762541806020067
2022-10-06T21:30:01.149Z,18.892976588628763
2022-10-06T21:36:35.349Z,25.929765886287626
2022-10-06T21:43:09.047Z,19.662207357859533
2022-10-06T21:55:16.737Z,30.193979933110366
2022-10-06T22:01:46.578Z,21.879598662207357
2022-10-06T22:13:49.309Z,31.849498327759196
2022-10-06T22:28:57.848Z,37.90969899665552
2022-10-06T22:40:26.185Z,25.642140468227424
2022-10-06T22:46:54.298Z,29.220735785953178
2022-10-06T22:58:13.438Z,29.357859531772576
2022-10-06T23:04:43.696Z,31.692307692307693
2022-10-06T23:11:16.513Z,31.59531772575251
2022-10-06T23:17:54.922Z,32.240802675585286
2022-10-06T23:24:23.769Z,32.070234113712374
2022-10-06T23:33:46.689Z,38.54515050167224
2022-10-06T23:40:13.719Z,34.26086956521739
2022-10-06T23:46:46.557Z,38.22742474916388
2022-10-06T23:58:01.263Z,34.618729096989966
